createdAt,value
2023-04-05T00:00:23.904Z,2.23
2023-04-05T00:05:34.470Z,2.04
2023-04-05T00:10:36.290Z,2.19
2023-04-05T00:15:37.939Z,2.41
2023-04-05T00:20:39.769Z,2.44
2023-04-05T00:25:41.536Z,2.33
2023-04-05T00:30:43.417Z,2.26
2023-04-05T00:35:45.294Z,2.17
2023-04-05T00:40:46.918Z,2.25
2023-04-05T00:45:48.581Z,2.04
2023-04-05T00:50:51.264Z,2.16
2023-04-05T00:55:53.290Z,2.20
2023-04-05T01:01:01.864Z,2.11
2023-04-05T01:06:31.174Z,2.23
2023-04-05T01:11:34.063Z,2.17
2023-04-05T01:16:35.686Z,2.09
2023-04-05T01:21:40.451Z,2.32
2023-04-05T01:27:10.097Z,2.25
2023-04-05T01:32:22.158Z,2.22
2023-04-05T01:37:30.703Z,2.13
2023-04-05T01:42:32.320Z,2.35
2023-04-05T01:47:33.969Z,2.20
2023-04-05T01:52:36.062Z,2.19
2023-04-05T01:57:39.071Z,2.18
2023-04-05T02:02:41.239Z,2.39
2023-04-05T02:07:43.729Z,2.39
2023-04-05T02:12:45.439Z,2.49
2023-04-05T02:17:47.620Z,2.37
2023-04-05T02:22:49.278Z,2.54
2023-04-05T02:27:50.993Z,2.52
2023-04-05T02:32:52.649Z,2.43
2023-04-05T02:37:54.296Z,2.34
2023-04-05T02:42:56.134Z,2.15
2023-04-05T02:47:57.861Z,2.14
2023-04-05T02:53:00.870Z,2.34
2023-04-05T02:58:04.160Z,2.38
2023-04-05T03:03:14.356Z,2.24
2023-04-05T03:08:23.830Z,2.09
2023-04-05T03:13:36.017Z,2.25
2023-04-05T03:18:41.185Z,2.44
2023-04-05T03:23:48.589Z,2.18
2023-04-05T03:28:54.495Z,2.18
2023-04-05T03:34:02.938Z,1.96
2023-04-05T03:39:13.861Z,2.05
2023-04-05T03:44:15.610Z,2.23
2023-04-05T03:49:20.023Z,2.23
2023-04-05T03:54:22.055Z,2.28
2023-04-05T03:59:24.928Z,2.08
2023-04-05T04:04:28.163Z,2.23
2023-04-05T04:09:31.172Z,2.31
2023-04-05T04:14:40.388Z,2.36
2023-04-05T04:20:00.953Z,2.26
2023-04-05T04:25:20.373Z,2.37
2023-04-05T04:30:34.976Z,2.18
2023-04-05T04:35:49.589Z,2.11
2023-04-05T04:41:08.203Z,2.24
2023-04-05T04:46:42.887Z,2.40
2023-04-05T04:51:50.442Z,2.17
2023-04-05T04:56:55.999Z,2.60
2023-04-05T05:01:57.642Z,2.78
2023-04-05T05:06:59.240Z,2.83
2023-04-05T05:12:01.803Z,2.84
2023-04-05T05:17:05.367Z,3.21
2023-04-05T05:22:07.168Z,3.26
2023-04-05T05:27:08.828Z,3.25
2023-04-05T05:32:14.477Z,3.39
2023-04-05T05:37:17.279Z,3.23
2023-04-05T05:42:19.175Z,3.17
2023-04-05T05:47:21.091Z,3.85
2023-04-05T05:52:22.791Z,3.91
2023-04-05T05:57:24.474Z,5.73
2023-04-05T06:02:26.407Z,4.85
2023-04-05T06:07:28.867Z,10.07
2023-04-05T06:12:30.494Z,8.80
2023-04-05T06:17:34.197Z,7.16
2023-04-05T06:22:36.621Z,5.76
2023-04-05T06:27:38.270Z,8.04
2023-04-05T06:32:39.862Z,9.71
2023-04-05T06:37:42.158Z,9.31
2023-04-05T06:42:44.073Z,11.09
2023-04-05T06:47:50.220Z,10.66
2023-04-05T06:52:51.834Z,10.55
2023-04-05T06:57:53.419Z,8.97
2023-04-05T07:02:55.082Z,10.29
2023-04-05T07:07:57.004Z,10.68
2023-04-05T07:12:58.671Z,10.22
2023-04-05T07:18:00.372Z,11.64
2023-04-05T07:23:02.480Z,12.40
2023-04-05T07:28:04.150Z,13.03
2023-04-05T07:33:05.782Z,14.35
2023-04-05T07:38:07.428Z,14.78
2023-04-05T07:43:09.036Z,16.51
2023-04-05T07:48:11.038Z,14.32
2023-04-05T07:53:12.743Z,15.69
2023-04-05T07:58:14.482Z,18.02
2023-04-05T08:03:16.104Z,17.78
2023-04-05T08:08:17.782Z,15.08
2023-04-05T08:13:19.417Z,11.28
2023-04-05T08:18:21.117Z,10.87
2023-04-05T08:23:23.549Z,10.14
2023-04-05T08:28:25.158Z,9.48
2023-04-05T08:33:28.484Z,17.17
2023-04-05T08:38:30.223Z,14.25
2023-04-05T08:43:55.308Z,10.75
2023-04-05T08:48:58.248Z,8.11
2023-04-05T08:54:01.178Z,8.29
2023-04-05T08:59:08.421Z,8.56
2023-04-05T09:04:15.777Z,8.36
2023-04-05T09:09:20.457Z,9.09
2023-04-05T09:14:22.226Z,8.88
2023-04-05T09:19:24.127Z,8.94
2023-04-05T09:24:37.027Z,9.29
2023-04-05T09:29:40.642Z,9.85
2023-04-05T09:34:44.087Z,13.83
2023-04-05T09:40:03.937Z,18.71
2023-04-05T09:45:07.366Z,18.78
2023-04-05T09:50:20.805Z,10.45
2023-04-05T09:55:29.039Z,8.98
2023-04-05T10:00:32.430Z,10.09
2023-04-05T10:05:34.182Z,10.26
2023-04-05T10:10:46.151Z,7.59
2023-04-05T10:15:52.085Z,7.56
2023-04-05T10:20:57.689Z,7.75
2023-04-05T10:26:08.146Z,8.27
2023-04-05T10:31:54.433Z,9.00
2023-04-05T10:37:02.282Z,11.21
2023-04-05T10:42:06.733Z,13.62
2023-04-05T10:47:14.006Z,15.70
2023-04-05T10:52:17.667Z,18.00
2023-04-05T10:57:21.477Z,16.66
2023-04-05T11:02:23.561Z,13.36
2023-04-05T11:07:25.539Z,14.54
2023-04-05T11:12:45.643Z,17.94
2023-04-05T11:18:16.805Z,16.69
2023-04-05T11:23:21.692Z,12.93
2023-04-05T11:28:30.529Z,9.93
2023-04-05T11:33:55.313Z,9.45
2023-04-05T11:39:19.535Z,9.39
2023-04-05T11:44:22.171Z,9.72
2023-04-05T11:49:25.807Z,9.35
2023-04-05T11:54:33.973Z,9.76
2023-04-05T11:59:36.520Z,10.15
2023-04-05T12:04:38.895Z,10.00
2023-04-05T12:09:58.851Z,10.22
2023-04-05T12:15:02.056Z,9.65
2023-04-05T12:20:04.291Z,10.39
2023-04-05T12:25:06.765Z,8.83
2023-04-05T12:30:36.210Z,10.22
2023-04-05T12:35:39.693Z,10.84
2023-04-05T12:40:41.661Z,10.52
2023-04-05T12:45:44.542Z,9.86
2023-04-05T12:50:48.568Z,9.08
2023-04-05T12:55:57.190Z,8.65
2023-04-05T13:00:59.044Z,8.51
2023-04-05T13:06:00.750Z,8.39
2023-04-05T13:11:02.420Z,8.00
2023-04-05T13:16:04.160Z,7.93
2023-04-05T13:21:08.022Z,8.16
2023-04-05T13:26:09.780Z,7.76
2023-04-05T13:31:13.556Z,8.24
2023-04-05T13:36:16.851Z,9.23
2023-04-05T13:41:18.489Z,9.87
2023-04-05T13:46:20.152Z,10.60
2023-04-05T13:51:21.881Z,11.45
2023-04-05T13:56:23.531Z,12.70
2023-04-05T14:01:25.478Z,10.84
2023-04-05T14:06:27.619Z,10.80
2023-04-05T14:11:29.325Z,9.86
2023-04-05T14:16:31.859Z,10.74
2023-04-05T14:21:33.597Z,10.17
2023-04-05T14:26:35.472Z,9.33
2023-04-05T14:31:37.196Z,8.44
2023-04-05T14:36:38.905Z,8.92
2023-04-05T14:41:41.063Z,8.83
2023-04-05T14:46:42.892Z,8.63
2023-04-05T14:51:45.272Z,8.49
2023-04-05T14:56:49.497Z,8.26
2023-04-05T15:01:51.386Z,7.84
2023-04-05T15:06:53.047Z,7.88
2023-04-05T15:11:56.003Z,7.96
2023-04-05T15:16:57.695Z,7.35
2023-04-05T15:21:59.365Z,7.53
2023-04-05T15:27:03.545Z,7.47
2023-04-05T15:32:05.471Z,7.01
2023-04-05T15:37:07.496Z,7.60
2023-04-05T15:42:09.119Z,7.91
2023-04-05T15:47:13.406Z,8.06
2023-04-05T15:52:15.674Z,8.05
2023-04-05T15:57:17.304Z,7.17
2023-04-05T16:02:19.274Z,7.30
2023-04-05T16:07:20.946Z,6.78
2023-04-05T16:12:22.631Z,6.47
2023-04-05T16:17:25.647Z,6.35
2023-04-05T16:22:27.400Z,6.73
2023-04-05T16:27:29.008Z,6.95
2023-04-05T16:32:30.734Z,7.03
2023-04-05T16:37:32.360Z,7.00
2023-04-05T16:42:33.985Z,6.91
2023-04-05T16:47:35.852Z,7.14
2023-04-05T16:52:37.462Z,7.24
2023-04-05T16:57:39.112Z,7.45
2023-04-05T17:02:40.806Z,7.17
2023-04-05T17:07:42.466Z,7.05
2023-04-05T17:12:45.636Z,6.83
2023-04-05T17:17:47.278Z,6.67
2023-04-05T17:22:50.016Z,6.48
2023-04-05T17:27:51.629Z,6.05
2023-04-05T17:32:53.512Z,5.78
2023-04-05T17:37:55.329Z,5.39
2023-04-05T17:42:56.936Z,5.27
2023-04-05T17:47:58.635Z,4.96
2023-04-05T17:53:00.426Z,4.92
2023-04-05T17:58:02.122Z,4.74
2023-04-05T18:03:07.967Z,4.57
2023-04-05T18:08:10.213Z,4.50
2023-04-05T18:13:12.159Z,4.46
2023-04-05T18:18:13.820Z,4.17
2023-04-05T18:23:15.808Z,4.22
2023-04-05T18:28:22.618Z,3.88
2023-04-05T18:33:24.765Z,3.76
2023-04-05T18:38:26.543Z,3.90
2023-04-05T18:43:28.187Z,3.92
2023-04-05T18:48:29.844Z,3.97
2023-04-05T18:53:31.445Z,4.22
2023-04-05T18:58:33.195Z,4.32
2023-04-05T19:03:35.078Z,4.32
2023-04-05T19:08:36.869Z,4.28
2023-04-05T19:13:38.461Z,3.99
2023-04-05T19:18:40.052Z,4.17
2023-04-05T19:23:42.088Z,4.14
2023-04-05T19:28:43.673Z,3.90
2023-04-05T19:33:45.274Z,3.80
2023-04-05T19:38:47.124Z,3.78
2023-04-05T19:43:50.385Z,3.96
2023-04-05T19:48:52.056Z,3.75
2023-04-05T19:53:54.073Z,3.85
2023-04-05T19:59:03.301Z,3.68
2023-04-05T20:04:12.715Z,3.60
2023-04-05T20:09:18.186Z,3.53
2023-04-05T20:14:26.693Z,3.53
2023-04-05T20:19:30.705Z,3.56
2023-04-05T20:24:32.410Z,3.58
2023-04-05T20:29:36.261Z,3.54
2023-04-05T20:34:38.350Z,3.60
2023-04-05T20:39:40.063Z,3.72
2023-04-05T20:44:41.726Z,3.63
2023-04-05T20:49:44.589Z,3.70
2023-04-05T20:54:47.581Z,3.32
2023-04-05T20:59:49.218Z,3.44
2023-04-05T21:04:51.089Z,3.09
2023-04-05T21:09:52.750Z,3.26
2023-04-05T21:14:54.332Z,3.08
2023-04-05T21:19:56.423Z,3.18
2023-04-05T21:24:58.023Z,3.20
2023-04-05T21:29:59.940Z,3.00
2023-04-05T21:35:01.626Z,2.80
2023-04-05T21:40:04.242Z,2.74
2023-04-05T21:45:06.695Z,2.57
2023-04-05T21:50:09.299Z,2.56
2023-04-05T21:55:11.104Z,2.28
2023-04-05T22:00:12.825Z,2.33
2023-04-05T22:05:25.741Z,2.11
2023-04-05T22:10:36.486Z,1.92
2023-04-05T22:15:38.210Z,1.62
2023-04-05T22:20:39.843Z,1.71
2023-04-05T22:25:41.424Z,1.45
2023-04-05T22:30:44.439Z,1.45
2023-04-05T22:35:46.468Z,1.26
2023-04-05T22:40:48.121Z,1.06
2023-04-05T22:45:52.132Z,0.75
2023-04-05T22:50:53.790Z,0.81
2023-04-05T22:55:55.481Z,0.64
2023-04-05T23:00:57.110Z,0.53
2023-04-05T23:05:58.760Z,0.49
2023-04-05T23:11:00.389Z,0.48
2023-04-05T23:16:02.030Z,0.30
2023-04-05T23:21:03.875Z,0.07
2023-04-05T23:26:05.603Z,0.09
2023-04-05T23:31:07.320Z,0.17
2023-04-05T23:36:09.765Z,0.24
2023-04-05T23:41:11.428Z,0.30
2023-04-05T23:46:13.473Z,0.31
2023-04-05T23:51:15.139Z,0.12
2023-04-05T23:56:16.970Z,0.23
